createdAt,value
2018-08-23T00:00:52.365Z,20.60
2018-08-23T00:03:26.285Z,20.70
2018-08-23T00:05:56.695Z,20.60
2018-08-23T00:08:25.657Z,20.70
2018-08-23T00:10:54.798Z,20.90
2018-08-23T00:13:23.669Z,20.70
2018-08-23T00:15:52.506Z,20.70
2018-08-23T00:18:21.327Z,20.70
2018-08-23T00:20:49.879Z,20.50
2018-08-23T00:23:18.426Z,20.50
2018-08-23T00:25:46.962Z,20.30
2018-08-23T00:28:15.506Z,20.30
2018-08-23T00:30:45.866Z,20.30
2018-08-23T00:33:14.370Z,20.40
2018-08-23T00:35:42.865Z,20.40
2018-08-23T00:38:11.356Z,20.40
2018-08-23T00:40:44.167Z,20.20
2018-08-23T00:43:14.282Z,20.20
2018-08-23T00:45:42.956Z,20.40
2018-08-23T00:48:11.422Z,20.20
2018-08-23T00:50:58.554Z,20.10
2018-08-23T00:53:28.229Z,20.10
2018-08-23T00:56:13.483Z,20.00
2018-08-23T00:59:17.132Z,20.20
2018-08-23T01:02:01.128Z,19.70
2018-08-23T01:04:30.915Z,20.00
2018-08-23T01:06:59.420Z,19.80
2018-08-23T01:09:27.859Z,19.90
2018-08-23T01:11:56.350Z,19.90
2018-08-23T01:14:24.851Z,19.80
2018-08-23T01:17:07.153Z,19.70
2018-08-23T01:19:41.153Z,19.60
2018-08-23T01:22:09.673Z,19.80
2018-08-23T01:24:38.451Z,19.90
2018-08-23T01:27:15.452Z,19.40
2018-08-23T01:29:44.523Z,19.60
2018-08-23T01:32:17.899Z,19.70
2018-08-23T01:34:46.461Z,19.40
2018-08-23T01:37:28.383Z,19.30
2018-08-23T01:39:56.839Z,19.20
2018-08-23T01:42:29.614Z,19.50
2018-08-23T01:44:58.143Z,19.60
2018-08-23T01:47:26.685Z,19.40
2018-08-23T01:49:55.129Z,19.40
2018-08-23T01:52:23.664Z,19.50
2018-08-23T01:54:52.518Z,19.50
2018-08-23T01:57:25.638Z,19.50
2018-08-23T01:59:54.406Z,19.50
2018-08-23T02:02:22.886Z,19.20
2018-08-23T02:04:51.410Z,19.00
2018-08-23T02:07:19.915Z,19.00
2018-08-23T02:09:48.670Z,18.90
2018-08-23T02:12:17.205Z,18.80
2018-08-23T02:14:46.417Z,18.80
2018-08-23T02:17:15.269Z,19.10
2018-08-23T02:19:47.029Z,18.90
2018-08-23T02:22:15.945Z,18.80
2018-08-23T02:24:48.393Z,18.70
2018-08-23T02:27:18.620Z,18.70
2018-08-23T02:29:48.952Z,18.50
2018-08-23T02:32:17.429Z,18.30
2018-08-23T02:34:47.151Z,18.30
2018-08-23T02:37:16.690Z,18.50
2018-08-23T02:39:45.962Z,18.70
2018-08-23T02:42:17.928Z,18.80
2018-08-23T02:44:47.250Z,18.60
2018-08-23T02:47:16.529Z,18.80
2018-08-23T02:49:45.090Z,18.80
2018-08-23T02:52:13.533Z,18.90
2018-08-23T02:54:42.311Z,18.80
2018-08-23T02:57:11.847Z,18.80
2018-08-23T02:59:40.518Z,18.50
2018-08-23T03:02:14.583Z,18.30
2018-08-23T03:04:43.180Z,18.30
2018-08-23T03:07:11.850Z,18.30
2018-08-23T03:09:42.127Z,18.70
2018-08-23T03:12:13.030Z,18.60
2018-08-23T03:14:41.962Z,18.40
2018-08-23T03:17:28.382Z,18.50
2018-08-23T03:20:13.938Z,18.30
2018-08-23T03:22:43.683Z,18.60
2018-08-23T03:25:14.533Z,18.50
2018-08-23T03:27:43.121Z,18.70
2018-08-23T03:30:13.111Z,18.90
2018-08-23T03:32:41.894Z,18.60
2018-08-23T03:35:10.458Z,18.80
2018-08-23T03:37:38.953Z,18.70
2018-08-23T03:40:08.098Z,18.90
2018-08-23T03:42:36.700Z,18.70
2018-08-23T03:45:05.726Z,18.60
2018-08-23T03:47:39.702Z,18.20
2018-08-23T03:50:09.523Z,18.10
2018-08-23T03:52:41.800Z,18.00
2018-08-23T03:55:11.852Z,18.00
2018-08-23T03:57:45.922Z,17.90
2018-08-23T04:00:14.459Z,17.70
2018-08-23T04:02:43.379Z,17.70
2018-08-23T04:05:17.648Z,17.50
2018-08-23T04:07:46.433Z,17.80
2018-08-23T04:10:14.981Z,18.10
2018-08-23T04:12:44.396Z,18.30
2018-08-23T04:15:25.785Z,18.10
2018-08-23T04:17:54.235Z,18.00
2018-08-23T04:20:22.709Z,18.30
2018-08-23T04:22:51.335Z,18.20
2018-08-23T04:25:19.818Z,17.90
2018-08-23T04:27:48.579Z,18.10
2018-08-23T04:30:17.118Z,18.00
2018-08-23T04:32:49.507Z,17.90
2018-08-23T04:35:23.709Z,17.90
2018-08-23T04:37:52.720Z,18.00
2018-08-23T04:40:21.180Z,18.20
2018-08-23T04:42:49.726Z,17.90
2018-08-23T04:45:26.349Z,17.80
2018-08-23T04:48:07.640Z,18.00
2018-08-23T04:50:36.924Z,18.10
2018-08-23T04:53:06.215Z,17.90
2018-08-23T04:55:34.992Z,17.90
2018-08-23T04:58:04.092Z,17.80
2018-08-23T05:00:32.957Z,17.80
2018-08-23T05:03:01.628Z,18.00
2018-08-23T05:05:30.131Z,18.00
2018-08-23T05:07:58.671Z,17.80
2018-08-23T05:10:27.229Z,17.80
2018-08-23T05:12:55.696Z,17.90
2018-08-23T05:15:25.220Z,18.00
2018-08-23T05:17:53.839Z,18.10
2018-08-23T05:20:22.563Z,18.10
2018-08-23T05:22:56.626Z,18.10
2018-08-23T05:25:25.984Z,18.10
2018-08-23T05:28:19.480Z,17.90
2018-08-23T05:30:48.880Z,17.80
2018-08-23T05:33:19.823Z,18.00
2018-08-23T05:35:48.497Z,18.00
2018-08-23T05:38:17.806Z,18.10
2018-08-23T05:40:51.807Z,18.00
2018-08-23T05:43:20.953Z,18.00
2018-08-23T05:45:53.661Z,17.90
2018-08-23T05:48:31.702Z,17.90
2018-08-23T05:51:05.608Z,18.00
2018-08-23T05:53:38.446Z,18.00
2018-08-23T05:56:07.576Z,18.10
2018-08-23T05:58:36.813Z,18.10
2018-08-23T06:01:05.683Z,18.20
2018-08-23T06:03:35.021Z,18.20
2018-08-23T06:06:03.739Z,18.30
2018-08-23T06:08:32.267Z,18.40
2018-08-23T06:11:09.678Z,18.40
2018-08-23T06:13:38.496Z,18.50
2018-08-23T06:16:07.179Z,18.80
2018-08-23T06:18:35.707Z,18.90
2018-08-23T06:21:05.299Z,19.20
2018-08-23T06:23:59.222Z,19.10
2018-08-23T06:26:46.484Z,19.30
2018-08-23T06:29:23.080Z,19.50
2018-08-23T06:31:58.745Z,19.70
2018-08-23T06:35:01.078Z,19.70
2018-08-23T06:37:29.704Z,19.80
2018-08-23T06:39:59.098Z,19.90
2018-08-23T06:42:45.360Z,19.90
2018-08-23T06:45:13.925Z,20.00
2018-08-23T06:47:44.043Z,20.10
2018-08-23T06:50:12.546Z,20.20
2018-08-23T06:52:46.454Z,20.30
2018-08-23T06:55:15.694Z,20.50
2018-08-23T06:57:46.758Z,20.60
2018-08-23T07:00:20.663Z,20.70
2018-08-23T07:02:49.920Z,20.80
2018-08-23T07:05:25.007Z,21.00
2018-08-23T07:07:53.501Z,21.10
2018-08-23T07:10:22.111Z,21.30
2018-08-23T07:12:51.053Z,21.50
2018-08-23T07:15:19.588Z,21.60
2018-08-23T07:17:48.327Z,21.70
2018-08-23T07:20:17.632Z,21.80
2018-08-23T07:22:46.145Z,22.10
2018-08-23T07:25:18.256Z,22.20
2018-08-23T07:27:47.017Z,22.30
2018-08-23T07:30:17.771Z,22.50
2018-08-23T07:32:47.877Z,22.70
2018-08-23T07:35:18.259Z,22.90
2018-08-23T07:37:48.490Z,23.10
2018-08-23T07:40:19.207Z,23.40
2018-08-23T07:42:50.137Z,23.60
2018-08-23T07:45:18.701Z,23.80
2018-08-23T07:47:48.710Z,24.00
2018-08-23T07:50:17.341Z,24.20
2018-08-23T07:52:47.732Z,24.40
2018-08-23T07:55:16.268Z,24.50
2018-08-23T07:57:45.783Z,24.70
2018-08-23T08:00:32.334Z,24.70
2018-08-23T08:03:01.341Z,24.80
2018-08-23T08:05:33.231Z,24.80
2018-08-23T08:08:01.975Z,24.90
2018-08-23T08:10:36.988Z,25.30
2018-08-23T08:13:05.883Z,25.50
2018-08-23T08:15:35.180Z,25.60
2018-08-23T08:18:10.507Z,25.60
2018-08-23T08:20:39.930Z,25.60
2018-08-23T08:23:08.445Z,25.90
2018-08-23T08:25:37.105Z,25.70
2018-08-23T08:28:06.505Z,25.50
2018-08-23T08:30:40.625Z,25.30
2018-08-23T08:33:11.869Z,25.20
2018-08-23T08:35:42.795Z,25.10
2018-08-23T08:38:11.741Z,25.20
2018-08-23T08:40:40.279Z,25.20
2018-08-23T08:43:08.778Z,25.30
2018-08-23T08:45:37.607Z,25.30
2018-08-23T08:48:45.020Z,25.40
2018-08-23T08:51:17.511Z,25.40
2018-08-23T08:53:47.702Z,25.50
2018-08-23T08:56:17.854Z,25.70
2018-08-23T08:58:46.504Z,25.80
2018-08-23T09:01:14.984Z,25.80
2018-08-23T09:03:43.450Z,25.90
2018-08-23T09:06:15.784Z,26.10
2018-08-23T09:08:44.714Z,26.20
2018-08-23T09:11:13.279Z,26.40
2018-08-23T09:13:47.326Z,26.50
2018-08-23T09:16:15.872Z,26.70
2018-08-23T09:18:54.142Z,26.70
2018-08-23T09:21:22.646Z,26.70
2018-08-23T09:23:51.131Z,26.80
2018-08-23T09:26:20.121Z,26.80
2018-08-23T09:28:48.711Z,26.80
2018-08-23T09:31:17.290Z,26.80
2018-08-23T09:33:45.790Z,26.90
2018-08-23T09:36:14.657Z,26.90
2018-08-23T09:38:44.532Z,26.90
2018-08-23T09:41:13.155Z,27.10
2018-08-23T09:43:42.318Z,27.30
2018-08-23T09:46:11.437Z,27.70
2018-08-23T09:48:40.091Z,27.90
2018-08-23T09:51:17.319Z,28.10
2018-08-23T09:53:46.107Z,28.00
2018-08-23T09:56:19.811Z,27.80
2018-08-23T09:58:51.980Z,27.70
2018-08-23T10:01:26.103Z,27.90
2018-08-23T10:05:03.699Z,28.00
2018-08-23T10:09:44.751Z,28.20
2018-08-23T10:12:18.610Z,28.40
2018-08-23T10:14:52.540Z,28.80
2018-08-23T10:17:27.204Z,28.90
2018-08-23T10:21:03.209Z,29.40
2018-08-23T10:23:31.734Z,29.00
2018-08-23T10:26:04.613Z,28.90
2018-08-23T10:28:38.806Z,29.10
2018-08-23T10:31:07.514Z,28.90
2018-08-23T10:36:21.021Z,28.80
2018-08-23T10:38:49.672Z,28.90
2018-08-23T10:41:19.126Z,29.30
2018-08-23T10:43:48.651Z,29.90
2018-08-23T10:46:17.268Z,30.40
2018-08-23T10:48:45.856Z,30.90
2018-08-23T10:51:14.321Z,30.60
2018-08-23T10:53:42.939Z,31.20
2018-08-23T10:56:11.509Z,30.90
2018-08-23T10:58:40.179Z,31.10
2018-08-23T11:01:08.817Z,30.50
2018-08-23T11:03:37.936Z,30.10
2018-08-23T11:06:06.941Z,29.80
2018-08-23T11:08:37.984Z,29.50
2018-08-23T11:11:11.847Z,29.50
2018-08-23T11:13:46.625Z,30.00
2018-08-23T11:16:21.033Z,30.90
2018-08-23T11:18:55.041Z,31.60
2018-08-23T11:21:24.211Z,31.20
2018-08-23T11:23:52.836Z,30.90
2018-08-23T11:26:25.050Z,30.80
2018-08-23T11:28:55.258Z,31.80
2018-08-23T11:31:29.562Z,31.30
2018-08-23T11:33:59.705Z,31.50
2018-08-23T11:36:28.264Z,31.40
2018-08-23T11:38:56.762Z,31.70
2018-08-23T11:41:25.549Z,32.30
2018-08-23T11:43:55.042Z,32.60
2018-08-23T11:46:23.693Z,32.10
2018-08-23T11:48:54.185Z,32.40
2018-08-23T11:51:22.952Z,31.70
2018-08-23T11:53:51.930Z,30.60
2018-08-23T11:56:20.594Z,30.20
2018-08-23T11:58:49.735Z,30.20
2018-08-23T12:01:18.778Z,30.30
2018-08-23T12:03:47.823Z,30.30
2018-08-23T12:06:17.499Z,30.40
2018-08-23T12:08:46.136Z,30.40
2018-08-23T12:11:15.343Z,30.30
2018-08-23T12:13:48.737Z,30.40
2018-08-23T12:16:17.250Z,30.20
2018-08-23T12:18:45.800Z,30.50
2018-08-23T12:21:14.993Z,30.60
2018-08-23T12:23:43.602Z,30.50
2018-08-23T12:26:12.429Z,30.10
2018-08-23T12:28:46.346Z,30.00
2018-08-23T12:31:15.273Z,30.00
2018-08-23T12:33:43.912Z,30.10
2018-08-23T12:36:13.081Z,30.30
2018-08-23T12:38:46.904Z,30.90
2018-08-23T12:41:20.802Z,30.80
2018-08-23T12:43:51.612Z,31.00
2018-08-23T12:46:20.590Z,30.60
2018-08-23T12:48:53.521Z,30.30
2018-08-23T12:51:22.945Z,30.50
2018-08-23T12:53:52.020Z,31.20
2018-08-23T12:56:20.693Z,32.10
2018-08-23T12:58:49.377Z,32.20
2018-08-23T13:01:18.035Z,32.20
2018-08-23T13:03:47.077Z,32.30
2018-08-23T13:06:15.668Z,32.30
2018-08-23T13:08:44.177Z,32.10
2018-08-23T13:11:12.767Z,32.40
2018-08-23T13:13:41.374Z,32.30
2018-08-23T13:16:10.083Z,31.90
2018-08-23T13:18:39.296Z,31.70
2018-08-23T13:21:08.329Z,31.30
2018-08-23T13:23:40.789Z,32.10
2018-08-23T13:26:09.265Z,32.60
2018-08-23T13:28:37.832Z,32.90
2018-08-23T13:31:06.410Z,32.60
2018-08-23T13:33:35.189Z,32.30
2018-08-23T13:36:03.701Z,32.30
2018-08-23T13:38:32.240Z,32.20
2018-08-23T13:41:00.910Z,32.30
2018-08-23T13:43:36.156Z,32.70
2018-08-23T13:46:04.576Z,32.70
2018-08-23T13:48:33.140Z,32.10
2018-08-23T13:51:01.623Z,32.30
2018-08-23T13:53:30.190Z,32.50
2018-08-23T13:55:58.755Z,32.70
2018-08-23T13:58:27.290Z,32.80
2018-08-23T14:00:55.777Z,33.00
2018-08-23T14:03:24.567Z,33.10
2018-08-23T14:05:53.409Z,33.30
2018-08-23T14:08:22.122Z,33.10
2018-08-23T14:10:50.933Z,32.20
2018-08-23T14:13:20.458Z,31.80
2018-08-23T14:15:54.682Z,31.50
2018-08-23T14:18:25.116Z,31.90
2018-08-23T14:20:54.433Z,32.30
2018-08-23T14:23:23.368Z,31.90
2018-08-23T14:25:52.405Z,31.70
2018-08-23T14:28:20.979Z,31.60
2018-08-23T14:30:50.526Z,31.70
2018-08-23T14:33:19.120Z,31.80
2018-08-23T14:35:47.714Z,31.90
2018-08-23T14:38:16.391Z,32.00
2018-08-23T14:40:46.348Z,31.70
2018-08-23T14:43:15.730Z,31.60
2018-08-23T14:45:44.355Z,31.50
2018-08-23T14:48:17.384Z,31.30
2018-08-23T14:50:50.851Z,31.40
2018-08-23T14:53:24.933Z,31.30
2018-08-23T14:55:58.753Z,31.10
2018-08-23T14:58:27.629Z,31.10
2018-08-23T15:00:56.748Z,31.10
2018-08-23T15:03:28.021Z,31.10
2018-08-23T15:05:57.328Z,31.20
2018-08-23T15:08:26.125Z,31.10
2018-08-23T15:10:55.980Z,30.80
2018-08-23T15:13:24.819Z,30.70
2018-08-23T15:15:54.596Z,30.70
2018-08-23T15:18:23.433Z,30.60
2018-08-23T15:20:54.128Z,30.60
2018-08-23T15:23:22.816Z,30.80
2018-08-23T15:25:51.480Z,30.90
2018-08-23T15:28:20.568Z,30.90
2018-08-23T15:30:49.597Z,31.00
2018-08-23T15:33:18.195Z,30.90
2018-08-23T15:35:47.035Z,30.90
2018-08-23T15:38:15.691Z,30.90
2018-08-23T15:40:44.287Z,30.80
2018-08-23T15:43:12.878Z,30.80
2018-08-23T15:45:41.502Z,30.70
2018-08-23T15:48:10.292Z,30.70
2018-08-23T15:50:38.881Z,30.60
2018-08-23T15:53:07.543Z,30.60
2018-08-23T15:55:36.394Z,30.50
2018-08-23T15:58:05.160Z,30.60
2018-08-23T16:00:37.983Z,30.70
2018-08-23T16:03:08.585Z,30.70
2018-08-23T16:05:37.695Z,30.80
2018-08-23T16:08:06.949Z,30.80
2018-08-23T16:10:36.013Z,30.70
2018-08-23T16:13:04.750Z,30.70
2018-08-23T16:15:33.654Z,30.70
2018-08-23T16:18:07.486Z,30.70
2018-08-23T16:20:41.453Z,30.70
2018-08-23T16:23:10.371Z,30.60
2018-08-23T16:25:42.491Z,30.70
2018-08-23T16:28:11.013Z,30.80
2018-08-23T16:30:43.545Z,31.00
2018-08-23T16:33:12.634Z,31.00
2018-08-23T16:35:42.019Z,31.10
2018-08-23T16:38:10.677Z,31.10
2018-08-23T16:40:39.210Z,30.90
2018-08-23T16:43:08.182Z,30.80
2018-08-23T16:45:36.891Z,30.80
2018-08-23T16:48:05.654Z,30.60
2018-08-23T16:50:34.228Z,30.50
2018-08-23T16:53:03.024Z,30.50
2018-08-23T16:55:31.894Z,30.40
2018-08-23T16:58:00.602Z,30.40
2018-08-23T17:00:29.097Z,30.30
2018-08-23T17:02:57.707Z,30.50
2018-08-23T17:05:26.289Z,30.50
2018-08-23T17:07:54.854Z,30.60
2018-08-23T17:10:23.440Z,30.60
2018-08-23T17:12:51.934Z,30.50
2018-08-23T17:15:20.527Z,30.60
2018-08-23T17:17:54.427Z,30.50
2018-08-23T17:20:29.693Z,30.50
2018-08-23T17:22:58.162Z,30.50
2018-08-23T17:25:26.807Z,30.30
2018-08-23T17:27:55.343Z,30.30
2018-08-23T17:30:23.921Z,30.20
2018-08-23T17:32:52.443Z,30.20
2018-08-23T17:35:21.340Z,30.10
2018-08-23T17:37:49.873Z,30.00
2018-08-23T17:40:18.698Z,29.80
2018-08-23T17:42:47.259Z,29.70
2018-08-23T17:45:15.921Z,29.60
2018-08-23T17:47:44.541Z,29.50
2018-08-23T17:50:13.155Z,29.40
2018-08-23T17:52:41.731Z,29.40
2018-08-23T17:55:10.293Z,29.30
2018-08-23T17:57:38.778Z,29.20
2018-08-23T18:00:07.360Z,29.10
2018-08-23T18:02:36.950Z,29.00
2018-08-23T18:05:05.661Z,28.80
2018-08-23T18:07:35.144Z,28.60
2018-08-23T18:10:03.745Z,28.50
2018-08-23T18:12:32.271Z,28.40
2018-08-23T18:15:00.882Z,28.40
2018-08-23T18:17:29.472Z,28.20
2018-08-23T18:19:58.055Z,28.20
2018-08-23T18:22:26.634Z,28.20
2018-08-23T18:24:55.322Z,28.20
2018-08-23T18:27:24.055Z,28.00
2018-08-23T18:29:52.647Z,28.00
2018-08-23T18:32:21.387Z,27.80
2018-08-23T18:34:49.951Z,27.70
2018-08-23T18:37:18.514Z,27.50
2018-08-23T18:39:48.104Z,27.60
2018-08-23T18:42:17.182Z,27.60
2018-08-23T18:44:46.111Z,27.50
2018-08-23T18:47:15.113Z,27.50
2018-08-23T18:49:44.112Z,27.50
2018-08-23T18:52:12.853Z,27.50
2018-08-23T18:54:41.576Z,27.60
2018-08-23T18:57:10.347Z,27.60
2018-08-23T18:59:39.391Z,27.60
2018-08-23T19:02:07.851Z,27.60
2018-08-23T19:04:36.404Z,27.60
2018-08-23T19:07:08.489Z,27.70
2018-08-23T19:09:37.140Z,27.60
2018-08-23T19:12:05.719Z,27.60
2018-08-23T19:14:34.565Z,27.50
2018-08-23T19:17:08.456Z,27.30
2018-08-23T19:19:36.978Z,27.30
2018-08-23T19:22:05.662Z,27.30
2018-08-23T19:24:34.127Z,27.30
2018-08-23T19:27:03.088Z,27.20
2018-08-23T19:29:31.892Z,27.10
2018-08-23T19:32:00.403Z,26.90
2018-08-23T19:34:28.956Z,26.40
2018-08-23T19:36:58.115Z,25.60
2018-08-23T19:39:26.940Z,24.20
2018-08-23T19:41:55.734Z,22.80
2018-08-23T19:44:24.549Z,21.50
2018-08-23T19:46:58.331Z,21.30
2018-08-23T19:49:32.048Z,20.90
2018-08-23T19:52:00.758Z,20.50
2018-08-23T19:54:29.308Z,20.40
2018-08-23T19:56:57.883Z,20.80
2018-08-23T19:59:26.787Z,20.80
2018-08-23T20:01:55.305Z,20.50
2018-08-23T20:04:23.842Z,20.70
2018-08-23T20:06:52.324Z,20.50
2018-08-23T20:09:20.839Z,20.40
2018-08-23T20:11:49.524Z,20.20
2018-08-23T20:14:19.303Z,20.20
2018-08-23T20:16:47.886Z,20.00
2018-08-23T20:19:16.467Z,20.00
2018-08-23T20:21:44.984Z,19.90
2018-08-23T20:24:14.716Z,19.90
2018-08-23T20:26:43.252Z,19.70
2018-08-23T20:29:11.932Z,19.40
2018-08-23T20:31:40.925Z,19.40
2018-08-23T20:34:09.583Z,19.40
2018-08-23T20:36:38.195Z,19.30
2018-08-23T20:39:10.154Z,19.50
2018-08-23T20:41:38.717Z,19.40
2018-08-23T20:44:07.574Z,19.50
2018-08-23T20:46:36.507Z,19.40
2018-08-23T20:49:05.080Z,19.30
2018-08-23T20:51:33.538Z,19.30
2018-08-23T20:54:02.354Z,19.30
2018-08-23T20:56:31.035Z,19.40
2018-08-23T20:58:59.494Z,19.60
2018-08-23T21:01:28.614Z,19.50
2018-08-23T21:03:57.517Z,19.70
2018-08-23T21:06:26.471Z,19.60
2018-08-23T21:08:55.095Z,19.70
2018-08-23T21:11:23.629Z,19.70
2018-08-23T21:13:52.142Z,19.60
2018-08-23T21:16:20.965Z,19.70
2018-08-23T21:18:49.726Z,19.60
2018-08-23T21:21:18.412Z,19.40
2018-08-23T21:23:47.191Z,19.40
2018-08-23T21:26:15.747Z,19.50
2018-08-23T21:28:44.301Z,19.50
2018-08-23T21:31:12.811Z,19.60
2018-08-23T21:33:41.315Z,19.40
2018-08-23T21:36:09.827Z,19.50
2018-08-23T21:38:38.546Z,19.50
2018-08-23T21:41:07.151Z,19.30
2018-08-23T21:43:36.003Z,19.30
2018-08-23T21:46:04.481Z,19.30
2018-08-23T21:48:32.920Z,19.30
2018-08-23T21:51:01.438Z,19.30
2018-08-23T21:53:29.937Z,19.30
2018-08-23T21:55:58.577Z,19.30
2018-08-23T21:58:27.044Z,19.30
2018-08-23T22:00:59.967Z,19.20
2018-08-23T22:03:28.521Z,19.20
2018-08-23T22:05:57.077Z,19.20
2018-08-23T22:08:26.004Z,19.20
2018-08-23T22:10:54.962Z,19.20
2018-08-23T22:13:24.086Z,19.10
2018-08-23T22:15:52.654Z,19.10
2018-08-23T22:18:21.222Z,19.00
2018-08-23T22:20:50.003Z,19.20
2018-08-23T22:23:19.097Z,19.20
2018-08-23T22:25:47.669Z,19.30
2018-08-23T22:28:16.195Z,19.30
2018-08-23T22:30:45.016Z,19.30
2018-08-23T22:33:14.029Z,19.30
2018-08-23T22:35:42.986Z,19.30
2018-08-23T22:38:11.883Z,19.40
2018-08-23T22:40:40.427Z,19.30
2018-08-23T22:43:09.239Z,19.40
2018-08-23T22:45:38.106Z,19.50
2018-08-23T22:48:07.017Z,19.40
2018-08-23T22:50:36.538Z,19.30
2018-08-23T22:53:05.392Z,19.10
2018-08-23T22:55:34.107Z,19.30
2018-08-23T22:58:02.799Z,19.40
2018-08-23T23:00:36.936Z,19.30
2018-08-23T23:03:09.708Z,19.20
2018-08-23T23:05:38.381Z,19.30
2018-08-23T23:08:07.719Z,19.30
2018-08-23T23:10:36.723Z,19.30
2018-08-23T23:13:05.335Z,19.30
2018-08-23T23:15:33.928Z,19.40
2018-08-23T23:18:02.690Z,19.40
2018-08-23T23:20:31.218Z,19.20
2018-08-23T23:22:59.882Z,19.20
2018-08-23T23:25:28.688Z,19.30
2018-08-23T23:27:57.916Z,19.30
2018-08-23T23:30:26.580Z,19.20
2018-08-23T23:32:55.617Z,19.10
2018-08-23T23:35:24.298Z,19.30
2018-08-23T23:37:52.844Z,19.10
2018-08-23T23:40:22.051Z,19.10
2018-08-23T23:42:50.600Z,19.20
2018-08-23T23:45:19.034Z,19.30
2018-08-23T23:47:47.747Z,19.20
2018-08-23T23:50:16.363Z,19.10
2018-08-23T23:52:44.859Z,19.00
2018-08-23T23:55:13.594Z,19.00
2018-08-23T23:57:42.220Z,19.10
